createdAt,value
2023-03-11T00:01:01.000Z,0
2023-03-11T00:02:17.000Z,0
2023-03-11T00:03:33.000Z,0
2023-03-11T00:04:49.000Z,0
2023-03-11T00:06:05.000Z,0
2023-03-11T00:07:22.000Z,0
2023-03-11T00:08:38.000Z,0
2023-03-11T00:09:54.000Z,0
2023-03-11T00:11:10.000Z,0
2023-03-11T00:12:26.000Z,0
2023-03-11T00:13:43.000Z,0
2023-03-11T00:14:59.000Z,0
2023-03-11T00:16:15.000Z,0
2023-03-11T00:17:30.000Z,0
2023-03-11T00:18:46.000Z,0
2023-03-11T00:20:03.000Z,0
2023-03-11T00:21:19.000Z,0
2023-03-11T00:22:35.000Z,0
2023-03-11T00:23:51.000Z,0
2023-03-11T00:25:07.000Z,0
2023-03-11T00:26:24.000Z,0
2023-03-11T00:27:40.000Z,0
2023-03-11T00:28:56.000Z,0
2023-03-11T00:30:12.000Z,0
2023-03-11T00:31:28.000Z,0
2023-03-11T00:32:44.936Z,0
2023-03-11T00:34:00.000Z,0
2023-03-11T00:35:16.000Z,0
2023-03-11T00:36:32.000Z,0
2023-03-11T00:37:48.000Z,0
2023-03-11T00:39:04.000Z,0
2023-03-11T00:40:21.000Z,0
2023-03-11T00:41:37.000Z,0
2023-03-11T00:42:53.000Z,0
2023-03-11T00:44:09.000Z,0
2023-03-11T00:45:25.000Z,0
2023-03-11T00:46:42.000Z,0
2023-03-11T00:47:58.000Z,0
2023-03-11T00:49:14.000Z,0
2023-03-11T00:50:29.000Z,0
2023-03-11T00:51:45.000Z,0
2023-03-11T00:53:02.000Z,0
2023-03-11T00:54:18.000Z,0
2023-03-11T00:55:34.000Z,0
2023-03-11T00:56:50.000Z,0
2023-03-11T00:58:06.000Z,0
2023-03-11T00:59:23.000Z,0
2023-03-11T01:00:39.000Z,0
2023-03-11T01:01:55.000Z,0
2023-03-11T01:03:11.000Z,0
2023-03-11T01:04:27.000Z,0
2023-03-11T01:05:44.000Z,0
2023-03-11T01:06:59.000Z,0
2023-03-11T01:08:15.000Z,0
2023-03-11T01:09:31.000Z,0
2023-03-11T01:10:47.808Z,0
2023-03-11T01:12:04.000Z,0
2023-03-11T01:13:20.000Z,0
2023-03-11T01:14:36.000Z,0
2023-03-11T01:15:52.000Z,0
2023-03-11T01:17:08.000Z,0
2023-03-11T01:18:25.000Z,0
2023-03-11T01:19:41.000Z,0
2023-03-11T01:20:57.000Z,0
2023-03-11T01:22:13.000Z,0
2023-03-11T01:23:28.000Z,0
2023-03-11T01:24:45.000Z,0
2023-03-11T01:26:01.000Z,0
2023-03-11T01:27:17.000Z,0
2023-03-11T01:28:33.000Z,0
2023-03-11T01:29:49.000Z,0
2023-03-11T01:31:05.000Z,0
2023-03-11T01:32:22.000Z,0
2023-03-11T01:33:38.000Z,0
2023-03-11T01:34:54.000Z,0
2023-03-11T01:36:10.688Z,0
2023-03-11T01:37:26.000Z,0
2023-03-11T01:38:43.000Z,0
2023-03-11T01:39:58.000Z,0
2023-03-11T01:41:14.000Z,0
2023-03-11T01:42:30.000Z,0
2023-03-11T01:43:46.000Z,0
2023-03-11T01:45:03.000Z,0
2023-03-11T01:46:19.000Z,0
2023-03-11T01:47:35.000Z,0
2023-03-11T01:48:51.645Z,0
2023-03-11T01:50:07.000Z,0
2023-03-11T01:51:24.000Z,0
2023-03-11T01:52:40.000Z,0
2023-03-11T01:53:56.000Z,0
2023-03-11T01:55:12.000Z,0
2023-03-11T01:56:27.000Z,0
2023-03-11T01:57:44.000Z,0
2023-03-11T01:59:00.000Z,0
2023-03-11T02:00:16.000Z,0
2023-03-11T02:01:32.611Z,0
2023-03-11T02:02:48.000Z,0
2023-03-11T02:04:05.000Z,0
2023-03-11T02:05:21.000Z,0
2023-03-11T02:06:37.000Z,0
2023-03-11T02:07:53.000Z,0
2023-03-11T02:09:09.000Z,0
2023-03-11T02:10:26.000Z,0
2023-03-11T02:11:42.000Z,0
2023-03-11T02:12:57.000Z,0
2023-03-11T02:14:13.000Z,0
2023-03-11T02:15:29.000Z,0
2023-03-11T02:16:46.000Z,0
2023-03-11T02:18:02.000Z,0
2023-03-11T02:19:18.000Z,0
2023-03-11T02:20:34.000Z,0
2023-03-11T02:21:50.000Z,0
2023-03-11T02:23:06.000Z,0
2023-03-11T02:24:23.000Z,0
2023-03-11T02:25:39.000Z,0
2023-03-11T02:26:55.000Z,0
2023-03-11T02:28:11.000Z,0
2023-03-11T02:29:26.000Z,0
2023-03-11T02:30:43.000Z,0
2023-03-11T02:31:59.000Z,0
2023-03-11T02:33:15.000Z,0
2023-03-11T02:34:31.000Z,0
2023-03-11T02:35:47.000Z,0
2023-03-11T02:37:04.000Z,0
2023-03-11T02:38:20.000Z,0
2023-03-11T02:39:36.446Z,0
2023-03-11T02:40:52.000Z,0
2023-03-11T02:42:08.000Z,0
2023-03-11T02:43:25.000Z,0
2023-03-11T02:44:41.000Z,0
2023-03-11T02:45:56.000Z,0
2023-03-11T02:47:12.000Z,0
2023-03-11T02:48:28.000Z,0
2023-03-11T02:49:45.000Z,0
2023-03-11T02:51:01.000Z,0
2023-03-11T02:52:17.404Z,0
2023-03-11T02:53:33.000Z,0
2023-03-11T02:54:49.000Z,0
2023-03-11T02:56:06.000Z,0
2023-03-11T02:57:22.000Z,0
2023-03-11T02:58:38.000Z,0
2023-03-11T02:59:54.000Z,0
2023-03-11T03:01:10.000Z,0
2023-03-11T03:02:26.000Z,0
2023-03-11T03:03:42.000Z,0
2023-03-11T03:04:58.365Z,0
2023-03-11T03:06:14.000Z,0
2023-03-11T03:07:30.000Z,0
2023-03-11T03:08:47.000Z,0
2023-03-11T03:10:03.000Z,0
2023-03-11T03:11:19.000Z,0
2023-03-11T03:12:35.000Z,0
2023-03-11T03:13:51.000Z,0
2023-03-11T03:15:07.000Z,0
2023-03-11T03:16:24.000Z,0
2023-03-11T03:17:40.000Z,0
2023-03-11T03:18:55.000Z,0
2023-03-11T03:20:11.000Z,0
2023-03-11T03:21:27.000Z,0
2023-03-11T03:22:44.000Z,0
2023-03-11T03:24:00.000Z,0
2023-03-11T03:25:16.000Z,0
2023-03-11T03:26:32.000Z,0
2023-03-11T03:27:48.000Z,0
2023-03-11T03:29:05.000Z,0
2023-03-11T03:30:21.250Z,0
2023-03-11T03:31:37.000Z,0
2023-03-11T03:32:53.000Z,0
2023-03-11T03:34:09.000Z,0
2023-03-11T03:35:25.000Z,0
2023-03-11T03:36:41.000Z,0
2023-03-11T03:37:57.000Z,0
2023-03-11T03:39:13.000Z,0
2023-03-11T03:40:29.000Z,0
2023-03-11T03:41:46.000Z,0
2023-03-11T03:43:02.000Z,0
2023-03-11T03:44:18.000Z,0
2023-03-11T03:45:34.000Z,0
2023-03-11T03:46:50.000Z,0
2023-03-11T03:48:07.000Z,0
2023-03-11T03:49:23.000Z,0
2023-03-11T03:50:39.000Z,0
2023-03-11T03:51:54.000Z,0
2023-03-11T03:53:10.000Z,0
2023-03-11T03:54:27.000Z,0
2023-03-11T03:55:43.164Z,0
2023-03-11T03:56:59.000Z,0
2023-03-11T03:58:15.000Z,0
2023-03-11T03:59:30.000Z,0
2023-03-11T04:00:47.000Z,0
2023-03-11T04:02:03.000Z,0
2023-03-11T04:03:19.000Z,0
2023-03-11T04:04:35.000Z,0
2023-03-11T04:05:51.000Z,0
2023-03-11T04:07:07.000Z,0
2023-03-11T04:08:24.128Z,0
2023-03-11T04:09:40.000Z,0
2023-03-11T04:10:56.000Z,0
2023-03-11T04:12:12.000Z,0
2023-03-11T04:13:28.000Z,0
2023-03-11T04:14:45.000Z,0
2023-03-11T04:16:00.000Z,0
2023-03-11T04:17:16.000Z,0
2023-03-11T04:18:32.000Z,0
2023-03-11T04:19:48.000Z,0
2023-03-11T04:21:05.000Z,0
2023-03-11T04:22:21.000Z,0
2023-03-11T04:23:37.000Z,0
2023-03-11T04:24:53.000Z,0
2023-03-11T04:26:09.000Z,0
2023-03-11T04:27:26.000Z,0
2023-03-11T04:28:42.000Z,0
2023-03-11T04:29:58.000Z,0
2023-03-11T04:31:14.000Z,0
2023-03-11T04:32:29.000Z,0
2023-03-11T04:33:46.000Z,0
2023-03-11T04:35:02.000Z,0
2023-03-11T04:36:18.000Z,0
2023-03-11T04:37:34.000Z,0
2023-03-11T04:38:50.000Z,0
2023-03-11T04:40:07.000Z,0
2023-03-11T04:41:23.000Z,0
2023-03-11T04:42:39.000Z,0
2023-03-11T04:43:55.000Z,0
2023-03-11T04:45:11.000Z,0
2023-03-11T04:46:28.000Z,0
2023-03-11T04:47:44.000Z,0
2023-03-11T04:48:59.000Z,0
2023-03-11T04:50:15.000Z,0
2023-03-11T04:51:31.000Z,0
2023-03-11T04:52:48.000Z,0
2023-03-11T04:54:04.000Z,0
2023-03-11T04:55:20.000Z,0
2023-03-11T04:56:36.000Z,0
2023-03-11T04:57:52.000Z,0
2023-03-11T04:59:08.934Z,0
2023-03-11T05:00:25.000Z,0
2023-03-11T05:01:41.000Z,0
2023-03-11T05:02:57.000Z,0
2023-03-11T05:04:13.000Z,0
2023-03-11T05:05:28.000Z,0
2023-03-11T05:06:45.000Z,0
2023-03-11T05:08:01.000Z,0
2023-03-11T05:09:17.000Z,0
2023-03-11T05:10:33.000Z,0
2023-03-11T05:11:49.875Z,0
2023-03-11T05:13:06.000Z,0
2023-03-11T05:14:22.000Z,0
2023-03-11T05:15:38.000Z,0
2023-03-11T05:16:54.000Z,0
2023-03-11T05:18:10.000Z,0
2023-03-11T05:19:27.000Z,0
2023-03-11T05:20:43.000Z,0
2023-03-11T05:21:58.000Z,0
2023-03-11T05:23:14.000Z,0
2023-03-11T05:24:30.000Z,0
2023-03-11T05:25:47.000Z,0
2023-03-11T05:27:03.000Z,0
2023-03-11T05:28:19.000Z,0
2023-03-11T05:29:35.000Z,0
2023-03-11T05:30:51.000Z,0
2023-03-11T05:32:08.000Z,0
2023-03-11T05:33:24.000Z,0
2023-03-11T05:34:40.000Z,0
2023-03-11T05:35:56.000Z,0
2023-03-11T05:37:12.774Z,0
2023-03-11T05:38:28.000Z,0
2023-03-11T05:39:44.000Z,0
2023-03-11T05:41:00.000Z,0
2023-03-11T05:42:16.000Z,5
2023-03-11T05:43:32.000Z,5
2023-03-11T05:44:49.000Z,5
2023-03-11T05:46:05.140Z,5
2023-03-11T05:47:21.000Z,11
2023-03-11T05:48:37.000Z,11
2023-03-11T05:49:53.726Z,11
2023-03-11T05:51:09.000Z,16
2023-03-11T05:52:26.000Z,16
2023-03-11T05:53:42.000Z,16
2023-03-11T05:54:57.000Z,22
2023-03-11T05:56:13.000Z,22
2023-03-11T05:57:29.000Z,28
2023-03-11T05:58:46.000Z,28
2023-03-11T06:00:02.293Z,33
2023-03-11T06:01:18.000Z,33
2023-03-11T06:02:34.000Z,39
2023-03-11T06:03:50.000Z,45
2023-03-11T06:05:07.000Z,45
2023-03-11T06:06:23.000Z,50
2023-03-11T06:07:39.000Z,56
2023-03-11T06:08:55.000Z,56
2023-03-11T06:10:11.000Z,61
2023-03-11T06:11:27.000Z,67
2023-03-11T06:12:43.000Z,67
2023-03-11T06:13:59.000Z,73
2023-03-11T06:15:15.635Z,78
2023-03-11T06:16:31.000Z,84
2023-03-11T06:17:48.000Z,84
2023-03-11T06:19:04.000Z,90
2023-03-11T06:20:20.000Z,95
2023-03-11T06:21:36.000Z,101
2023-03-11T06:22:52.000Z,112
2023-03-11T06:24:09.000Z,118
2023-03-11T06:25:25.000Z,129
2023-03-11T06:26:41.000Z,135
2023-03-11T06:27:56.594Z,140
2023-03-11T06:29:12.000Z,146
2023-03-11T06:30:29.000Z,151
2023-03-11T06:31:45.000Z,157
2023-03-11T06:33:01.000Z,163
2023-03-11T06:34:17.000Z,163
2023-03-11T06:35:33.000Z,163
2023-03-11T06:36:50.000Z,168
2023-03-11T06:38:06.000Z,168
2023-03-11T06:39:22.000Z,168
2023-03-11T06:40:38.000Z,174
2023-03-11T06:41:54.000Z,180
2023-03-11T06:43:10.000Z,180
2023-03-11T06:44:26.000Z,180
2023-03-11T06:45:42.000Z,185
2023-03-11T06:46:58.000Z,191
2023-03-11T06:48:14.000Z,196
2023-03-11T06:49:30.000Z,202
2023-03-11T06:50:47.000Z,208
2023-03-11T06:52:03.000Z,208
2023-03-11T06:53:19.000Z,213
2023-03-11T06:54:35.000Z,225
2023-03-11T06:55:51.000Z,230
2023-03-11T06:57:08.069Z,241
2023-03-11T06:58:24.000Z,253
2023-03-11T06:59:40.000Z,264
2023-03-11T07:00:55.000Z,286
2023-03-11T07:02:11.000Z,928
2023-03-11T07:03:28.000Z,2143
2023-03-11T07:04:44.000Z,2750
2023-03-11T07:06:00.432Z,3240
2023-03-11T07:07:16.000Z,3251
2023-03-11T07:08:32.000Z,3391
2023-03-11T07:09:49.000Z,3380
2023-03-11T07:11:05.000Z,3515
2023-03-11T07:12:21.000Z,3453
2023-03-11T07:13:37.000Z,3532
2023-03-11T07:14:53.784Z,3555
2023-03-11T07:16:10.000Z,3577
2023-03-11T07:17:25.000Z,3616
2023-03-11T07:18:41.388Z,3667
2023-03-11T07:19:57.000Z,3526
2023-03-11T07:21:13.000Z,3532
2023-03-11T07:22:30.000Z,3780
2023-03-11T07:23:46.000Z,3785
2023-03-11T07:25:02.000Z,3853
2023-03-11T07:26:18.000Z,3853
2023-03-11T07:27:34.000Z,3706
2023-03-11T07:28:51.000Z,3600
2023-03-11T07:30:07.000Z,3892
2023-03-11T07:31:23.000Z,4021
2023-03-11T07:32:39.000Z,4123
2023-03-11T07:33:54.000Z,3740
2023-03-11T07:35:10.000Z,4123
2023-03-11T07:36:27.000Z,4100
2023-03-11T07:37:43.000Z,4269
2023-03-11T07:38:59.000Z,4280
2023-03-11T07:40:15.000Z,4308
2023-03-11T07:41:31.000Z,4230
2023-03-11T07:42:48.000Z,4365
2023-03-11T07:44:04.274Z,4342
2023-03-11T07:45:20.000Z,4303
2023-03-11T07:46:36.000Z,4370
2023-03-11T07:47:52.000Z,4168
2023-03-11T07:49:09.000Z,4359
2023-03-11T07:50:24.000Z,4488
2023-03-11T07:51:40.000Z,4668
2023-03-11T07:52:56.000Z,4483
2023-03-11T07:54:12.000Z,4584
2023-03-11T07:55:29.000Z,4280
2023-03-11T07:56:45.230Z,4111
2023-03-11T07:58:01.000Z,4471
2023-03-11T07:59:17.000Z,4646
2023-03-11T08:00:33.000Z,4640
2023-03-11T08:01:50.000Z,4516
2023-03-11T08:03:06.000Z,4500
2023-03-11T08:04:22.000Z,4725
2023-03-11T08:05:38.616Z,4792
2023-03-11T08:06:53.000Z,4629
2023-03-11T08:08:10.000Z,4561
2023-03-11T08:09:26.000Z,4871
2023-03-11T08:10:42.000Z,4848
2023-03-11T08:11:58.000Z,4815
2023-03-11T08:13:14.000Z,4758
2023-03-11T08:14:30.000Z,4854
2023-03-11T08:15:46.000Z,4803
2023-03-11T08:17:02.000Z,4741
2023-03-11T08:18:18.000Z,4995
2023-03-11T08:19:34.000Z,4584
2023-03-11T08:20:51.000Z,4882
2023-03-11T08:22:07.195Z,4950
2023-03-11T08:23:23.000Z,4775
2023-03-11T08:24:39.000Z,4966
2023-03-11T08:25:55.000Z,4966
2023-03-11T08:27:12.000Z,4826
2023-03-11T08:28:28.182Z,4955
2023-03-11T08:29:44.000Z,4961
2023-03-11T08:30:59.000Z,4848
2023-03-11T08:32:15.000Z,4826
2023-03-11T08:33:32.000Z,4854
2023-03-11T08:34:48.179Z,4747
2023-03-11T08:36:04.000Z,4966
2023-03-11T08:37:20.000Z,4938
2023-03-11T08:38:36.000Z,4944
2023-03-11T08:39:53.000Z,4786
2023-03-11T08:41:09.000Z,4888
2023-03-11T08:42:25.000Z,4978
2023-03-11T08:43:41.000Z,4876
2023-03-11T08:44:57.000Z,5011
2023-03-11T08:46:14.000Z,4775
2023-03-11T08:47:29.000Z,4556
2023-03-11T08:48:45.000Z,4696
2023-03-11T08:50:01.000Z,4685
2023-03-11T08:51:17.000Z,4983
2023-03-11T08:52:34.000Z,5040
2023-03-11T08:53:50.000Z,4657
2023-03-11T08:55:06.000Z,4556
2023-03-11T08:56:22.000Z,4685
2023-03-11T08:57:38.000Z,4466
2023-03-11T08:58:55.000Z,4623
2023-03-11T09:00:11.000Z,4618
2023-03-11T09:01:27.000Z,4505
2023-03-11T09:02:43.000Z,4460
2023-03-11T09:03:58.000Z,4606
2023-03-11T09:05:15.000Z,4522
2023-03-11T09:06:31.000Z,4348
2023-03-11T09:07:47.000Z,4207
2023-03-11T09:09:03.000Z,4083
2023-03-11T09:10:19.000Z,4494
2023-03-11T09:11:36.000Z,4556
2023-03-11T09:12:52.129Z,4500
2023-03-11T09:14:08.000Z,3695
2023-03-11T09:15:24.000Z,2413
2023-03-11T09:16:40.000Z,2098
2023-03-11T09:17:56.000Z,2075
2023-03-11T09:19:13.000Z,2075
2023-03-11T09:20:28.000Z,2075
2023-03-11T09:21:44.000Z,2081
2023-03-11T09:23:00.000Z,2086
2023-03-11T09:24:17.000Z,2103
2023-03-11T09:25:33.000Z,2120
2023-03-11T09:26:49.000Z,2143
2023-03-11T09:28:05.000Z,2137
2023-03-11T09:29:21.000Z,2092
2023-03-11T09:30:37.000Z,2160
2023-03-11T09:31:54.000Z,2176
2023-03-11T09:33:10.000Z,2199
2023-03-11T09:34:26.000Z,2227
2023-03-11T09:35:42.000Z,2227
2023-03-11T09:36:57.000Z,2216
2023-03-11T09:38:14.000Z,2233
2023-03-11T09:39:30.000Z,2171
2023-03-11T09:40:46.000Z,2193
2023-03-11T09:42:02.000Z,2233
2023-03-11T09:43:18.000Z,2205
2023-03-11T09:44:35.000Z,2199
2023-03-11T09:45:51.000Z,2205
2023-03-11T09:47:07.000Z,2199
2023-03-11T09:48:23.000Z,2193
2023-03-11T09:49:39.000Z,2182
2023-03-11T09:50:56.082Z,2171
2023-03-11T09:52:12.000Z,2137
2023-03-11T09:53:27.000Z,2131
2023-03-11T09:54:43.000Z,2115
2023-03-11T09:55:59.000Z,2103
2023-03-11T09:57:16.000Z,2115
2023-03-11T09:58:32.000Z,2131
2023-03-11T09:59:48.000Z,2143
2023-03-11T10:01:04.000Z,2193
2023-03-11T10:02:20.000Z,2385
2023-03-11T10:03:37.000Z,2621
2023-03-11T10:04:53.000Z,1558
2023-03-11T10:06:09.450Z,663
2023-03-11T10:07:25.000Z,714
2023-03-11T10:08:41.000Z,663
2023-03-11T10:09:57.000Z,635
2023-03-11T10:11:13.000Z,613
2023-03-11T10:12:29.000Z,596
2023-03-11T10:13:45.000Z,585
2023-03-11T10:15:01.000Z,573
2023-03-11T10:16:18.000Z,568
2023-03-11T10:17:34.000Z,562
2023-03-11T10:18:50.000Z,551
2023-03-11T10:20:06.000Z,545
2023-03-11T10:21:22.000Z,540
2023-03-11T10:22:39.000Z,528
2023-03-11T10:23:55.000Z,523
2023-03-11T10:25:11.000Z,517
2023-03-11T10:26:26.000Z,511
2023-03-11T10:27:42.000Z,506
2023-03-11T10:28:59.015Z,495
2023-03-11T10:30:15.000Z,500
2023-03-11T10:31:31.000Z,495
2023-03-11T10:32:47.000Z,489
2023-03-11T10:34:03.000Z,478
2023-03-11T10:35:20.000Z,472
2023-03-11T10:36:36.000Z,461
2023-03-11T10:37:52.000Z,461
2023-03-11T10:39:08.000Z,461
2023-03-11T10:40:24.000Z,455
2023-03-11T10:41:41.000Z,450
2023-03-11T10:42:56.000Z,258
2023-03-11T10:44:12.000Z,247
2023-03-11T10:45:28.000Z,455
2023-03-11T10:46:44.000Z,438
2023-03-11T10:48:01.000Z,298
2023-03-11T10:49:17.000Z,472
2023-03-11T10:50:33.000Z,461
2023-03-11T10:51:49.000Z,455
2023-03-11T10:53:05.000Z,444
2023-03-11T10:54:22.000Z,438
2023-03-11T10:55:38.000Z,444
2023-03-11T10:56:54.000Z,450
2023-03-11T10:58:10.000Z,309
2023-03-11T10:59:25.715Z,433
2023-03-11T11:00:42.000Z,433
2023-03-11T11:01:58.000Z,433
2023-03-11T11:03:14.308Z,438
2023-03-11T11:04:30.000Z,371
2023-03-11T11:05:46.000Z,382
2023-03-11T11:07:02.888Z,399
2023-03-11T11:08:19.000Z,416
2023-03-11T11:09:35.000Z,421
2023-03-11T11:10:51.000Z,438
2023-03-11T11:12:07.000Z,427
2023-03-11T11:13:23.877Z,421
2023-03-11T11:14:40.000Z,405
2023-03-11T11:15:55.000Z,410
2023-03-11T11:17:11.000Z,382
2023-03-11T11:18:27.000Z,376
2023-03-11T11:19:43.857Z,382
2023-03-11T11:21:00.000Z,382
2023-03-11T11:22:16.000Z,376
2023-03-11T11:23:32.000Z,365
2023-03-11T11:24:48.000Z,343
2023-03-11T11:26:04.000Z,354
2023-03-11T11:27:21.000Z,360
2023-03-11T11:28:37.000Z,337
2023-03-11T11:29:53.000Z,348
2023-03-11T11:31:09.000Z,354
2023-03-11T11:32:24.000Z,360
2023-03-11T11:33:41.000Z,365
2023-03-11T11:34:57.000Z,365
2023-03-11T11:36:13.000Z,360
2023-03-11T11:37:29.000Z,343
2023-03-11T11:38:45.000Z,360
2023-03-11T11:40:02.000Z,354
2023-03-11T11:41:18.000Z,348
2023-03-11T11:42:34.000Z,343
2023-03-11T11:43:50.000Z,343
2023-03-11T11:45:06.000Z,337
2023-03-11T11:46:23.000Z,337
2023-03-11T11:47:39.000Z,331
2023-03-11T11:48:54.000Z,331
2023-03-11T11:50:10.000Z,326
2023-03-11T11:51:26.000Z,326
2023-03-11T11:52:43.000Z,326
2023-03-11T11:53:59.000Z,326
2023-03-11T11:55:15.000Z,337
2023-03-11T11:56:31.000Z,337
2023-03-11T11:57:47.743Z,337
2023-03-11T11:59:04.000Z,343
2023-03-11T12:00:20.000Z,343
2023-03-11T12:01:36.000Z,343
2023-03-11T12:02:52.000Z,320
2023-03-11T12:04:08.000Z,315
2023-03-11T12:05:24.000Z,326
2023-03-11T12:06:40.000Z,326
2023-03-11T12:07:56.000Z,309
2023-03-11T12:09:12.000Z,298
2023-03-11T12:10:28.000Z,331
2023-03-11T12:11:45.000Z,309
2023-03-11T12:13:01.000Z,331
2023-03-11T12:14:17.000Z,326
2023-03-11T12:15:33.000Z,315
2023-03-11T12:16:49.789Z,303
2023-03-11T12:18:05.000Z,309
2023-03-11T12:19:22.000Z,298
2023-03-11T12:20:38.000Z,292
2023-03-11T12:21:53.000Z,292
2023-03-11T12:23:09.000Z,292
2023-03-11T12:24:25.000Z,298
2023-03-11T12:25:42.000Z,298
2023-03-11T12:26:58.278Z,298
2023-03-11T12:28:14.000Z,298
2023-03-11T12:29:29.000Z,303
2023-03-11T12:30:45.000Z,303
2023-03-11T12:32:02.000Z,309
2023-03-11T12:33:18.000Z,303
2023-03-11T12:34:34.000Z,309
2023-03-11T12:35:50.669Z,309
2023-03-11T12:37:06.000Z,315
2023-03-11T12:38:23.000Z,309
2023-03-11T12:39:39.000Z,309
2023-03-11T12:40:55.440Z,303
2023-03-11T12:42:11.000Z,298
2023-03-11T12:43:27.000Z,286
2023-03-11T12:44:44.000Z,281
2023-03-11T12:45:59.000Z,270
2023-03-11T12:47:15.000Z,275
2023-03-11T12:48:31.000Z,281
2023-03-11T12:49:47.000Z,292
2023-03-11T12:51:04.000Z,281
2023-03-11T12:52:20.000Z,275
2023-03-11T12:53:36.000Z,281
2023-03-11T12:54:52.000Z,281
2023-03-11T12:56:08.000Z,253
2023-03-11T12:57:25.000Z,253
2023-03-11T12:58:41.000Z,264
2023-03-11T12:59:57.000Z,253
2023-03-11T13:01:13.000Z,258
2023-03-11T13:02:28.000Z,281
2023-03-11T13:03:45.000Z,241
2023-03-11T13:05:01.000Z,247
2023-03-11T13:06:17.000Z,253
2023-03-11T13:07:33.000Z,230
2023-03-11T13:08:49.778Z,225
2023-03-11T13:10:06.000Z,225
2023-03-11T13:11:22.000Z,219
2023-03-11T13:12:38.000Z,213
2023-03-11T13:13:54.000Z,213
2023-03-11T13:15:10.750Z,213
2023-03-11T13:16:27.000Z,208
2023-03-11T13:17:43.000Z,208
2023-03-11T13:18:58.000Z,208
2023-03-11T13:20:14.000Z,202
2023-03-11T13:21:30.000Z,202
2023-03-11T13:22:47.000Z,196
2023-03-11T13:24:03.140Z,191
2023-03-11T13:25:19.000Z,196
2023-03-11T13:26:35.533Z,191
2023-03-11T13:27:51.000Z,185
2023-03-11T13:29:08.000Z,185
2023-03-11T13:30:24.000Z,180
2023-03-11T13:31:40.000Z,180
2023-03-11T13:32:56.000Z,180
2023-03-11T13:34:12.000Z,180
2023-03-11T13:35:28.000Z,180
2023-03-11T13:36:44.000Z,174
2023-03-11T13:38:00.000Z,174
2023-03-11T13:39:16.000Z,174
2023-03-11T13:40:32.000Z,174
2023-03-11T13:41:48.000Z,174
2023-03-11T13:43:05.000Z,174
2023-03-11T13:44:21.000Z,135
2023-03-11T13:45:37.000Z,140
2023-03-11T13:46:53.000Z,140
2023-03-11T13:48:09.000Z,174
2023-03-11T13:49:26.000Z,185
2023-03-11T13:50:42.261Z,185
2023-03-11T13:51:57.000Z,185
2023-03-11T13:53:13.000Z,185
2023-03-11T13:54:29.000Z,180
2023-03-11T13:55:46.000Z,185
2023-03-11T13:57:02.000Z,180
2023-03-11T13:58:18.000Z,174
2023-03-11T13:59:34.000Z,174
2023-03-11T14:00:50.000Z,174
2023-03-11T14:02:07.000Z,174
2023-03-11T14:03:23.000Z,180
2023-03-11T14:04:39.509Z,180
2023-03-11T14:05:55.000Z,180
2023-03-11T14:07:11.000Z,180
2023-03-11T14:08:27.000Z,180
2023-03-11T14:09:43.000Z,163
2023-03-11T14:10:59.000Z,174
2023-03-11T14:12:15.000Z,174
2023-03-11T14:13:31.000Z,174
2023-03-11T14:14:48.000Z,168
2023-03-11T14:16:04.000Z,168
2023-03-11T14:17:20.000Z,168
2023-03-11T14:18:36.000Z,174
2023-03-11T14:19:52.000Z,180
2023-03-11T14:21:09.000Z,185
2023-03-11T14:22:25.000Z,185
2023-03-11T14:23:41.000Z,191
2023-03-11T14:24:56.000Z,185
2023-03-11T14:26:12.000Z,180
2023-03-11T14:27:29.000Z,180
2023-03-11T14:28:45.000Z,174
2023-03-11T14:30:01.000Z,174
2023-03-11T14:31:17.000Z,174
2023-03-11T14:32:33.000Z,174
2023-03-11T14:33:50.000Z,168
2023-03-11T14:35:06.000Z,174
2023-03-11T14:36:22.000Z,185
2023-03-11T14:37:38.000Z,185
2023-03-11T14:38:54.000Z,185
2023-03-11T14:40:11.000Z,185
2023-03-11T14:41:26.000Z,185
2023-03-11T14:42:42.431Z,180
2023-03-11T14:43:58.000Z,180
2023-03-11T14:45:14.000Z,180
2023-03-11T14:46:31.000Z,185
2023-03-11T14:47:47.000Z,185
2023-03-11T14:49:03.000Z,191
2023-03-11T14:50:19.000Z,196
2023-03-11T14:51:35.000Z,202
2023-03-11T14:52:52.011Z,196
2023-03-11T14:54:08.000Z,191
2023-03-11T14:55:24.402Z,185
2023-03-11T14:56:40.000Z,185
2023-03-11T14:57:55.000Z,185
2023-03-11T14:59:12.000Z,185
2023-03-11T15:00:28.000Z,180
2023-03-11T15:01:44.000Z,174
2023-03-11T15:03:00.000Z,168
2023-03-11T15:04:16.000Z,123
2023-03-11T15:05:32.000Z,118
2023-03-11T15:06:49.000Z,118
2023-03-11T15:08:05.000Z,118
2023-03-11T15:09:21.000Z,118
2023-03-11T15:10:37.000Z,157
2023-03-11T15:11:53.000Z,157
2023-03-11T15:13:10.000Z,151
2023-03-11T15:14:25.352Z,112
2023-03-11T15:15:41.000Z,112
2023-03-11T15:16:57.000Z,106
2023-03-11T15:18:13.000Z,106
2023-03-11T15:19:30.000Z,106
2023-03-11T15:20:46.337Z,129
2023-03-11T15:22:02.000Z,151
2023-03-11T15:23:18.000Z,146
2023-03-11T15:24:34.000Z,146
2023-03-11T15:25:51.000Z,146
2023-03-11T15:27:07.000Z,146
2023-03-11T15:28:23.000Z,140
2023-03-11T15:29:39.000Z,135
2023-03-11T15:30:54.000Z,140
2023-03-11T15:32:11.000Z,140
2023-03-11T15:33:27.310Z,135
2023-03-11T15:34:43.000Z,135
2023-03-11T15:35:59.000Z,129
2023-03-11T15:37:15.000Z,129
2023-03-11T15:38:32.000Z,135
2023-03-11T15:39:48.000Z,140
2023-03-11T15:41:04.000Z,140
2023-03-11T15:42:20.698Z,140
2023-03-11T15:43:36.000Z,135
2023-03-11T15:44:53.000Z,135
2023-03-11T15:46:09.000Z,129
2023-03-11T15:47:24.000Z,129
2023-03-11T15:48:40.000Z,135
2023-03-11T15:49:56.000Z,123
2023-03-11T15:51:13.000Z,123
2023-03-11T15:52:29.000Z,112
2023-03-11T15:53:45.472Z,118
2023-03-11T15:55:01.000Z,106
2023-03-11T15:56:17.000Z,101
2023-03-11T15:57:34.000Z,101
2023-03-11T15:58:50.000Z,90
2023-03-11T16:00:06.000Z,84
2023-03-11T16:01:22.000Z,84
2023-03-11T16:02:38.000Z,84
2023-03-11T16:03:54.000Z,78
2023-03-11T16:05:10.000Z,78
2023-03-11T16:06:26.000Z,73
2023-03-11T16:07:42.000Z,73
2023-03-11T16:08:58.000Z,73
2023-03-11T16:10:15.000Z,78
2023-03-11T16:11:31.000Z,78
2023-03-11T16:12:47.000Z,78
2023-03-11T16:14:03.000Z,78
2023-03-11T16:15:19.000Z,78
2023-03-11T16:16:36.000Z,78
2023-03-11T16:17:52.204Z,73
2023-03-11T16:19:08.000Z,73
2023-03-11T16:20:23.000Z,67
2023-03-11T16:21:39.000Z,67
2023-03-11T16:22:56.000Z,73
2023-03-11T16:24:12.000Z,67
2023-03-11T16:25:28.000Z,67
2023-03-11T16:26:44.000Z,67
2023-03-11T16:28:00.000Z,67
2023-03-11T16:29:17.000Z,67
2023-03-11T16:30:33.000Z,61
2023-03-11T16:31:49.385Z,61
2023-03-11T16:33:05.000Z,56
2023-03-11T16:34:21.000Z,56
2023-03-11T16:35:37.000Z,56
2023-03-11T16:36:53.000Z,50
2023-03-11T16:38:09.000Z,50
2023-03-11T16:39:25.000Z,50
2023-03-11T16:40:41.000Z,50
2023-03-11T16:41:57.000Z,50
2023-03-11T16:43:14.000Z,45
2023-03-11T16:44:29.000Z,45
2023-03-11T16:45:45.000Z,45
2023-03-11T16:47:01.000Z,50
2023-03-11T16:48:17.000Z,50
2023-03-11T16:49:34.000Z,45
2023-03-11T16:50:50.000Z,45
2023-03-11T16:52:06.000Z,45
2023-03-11T16:53:22.000Z,45
2023-03-11T16:54:38.000Z,39
2023-03-11T16:55:55.000Z,39
2023-03-11T16:57:11.000Z,39
2023-03-11T16:58:27.000Z,39
2023-03-11T16:59:43.000Z,39
2023-03-11T17:00:58.000Z,39
2023-03-11T17:02:15.121Z,33
2023-03-11T17:03:31.000Z,33
2023-03-11T17:04:47.000Z,28
2023-03-11T17:06:03.000Z,28
2023-03-11T17:07:19.000Z,28
2023-03-11T17:08:36.000Z,22
2023-03-11T17:09:52.000Z,22
2023-03-11T17:11:08.000Z,22
2023-03-11T17:12:24.000Z,22
2023-03-11T17:13:40.000Z,16
2023-03-11T17:14:57.000Z,16
2023-03-11T17:16:13.278Z,16
2023-03-11T17:17:28.000Z,16
2023-03-11T17:18:44.000Z,11
2023-03-11T17:20:00.000Z,11
2023-03-11T17:21:17.000Z,11
2023-03-11T17:22:33.000Z,11
2023-03-11T17:23:49.471Z,5
2023-03-11T17:25:05.667Z,5
2023-03-11T17:26:21.000Z,5
2023-03-11T17:27:38.059Z,5
2023-03-11T17:28:54.000Z,0
2023-03-11T17:30:10.000Z,0
2023-03-11T17:31:26.000Z,0
2023-03-11T17:32:42.000Z,0
2023-03-11T17:33:58.063Z,0
2023-03-11T17:35:14.000Z,0
2023-03-11T17:36:30.000Z,0
2023-03-11T17:37:46.000Z,0
2023-03-11T17:39:02.000Z,0
2023-03-11T17:40:19.015Z,0
2023-03-11T17:41:35.000Z,0
2023-03-11T17:42:51.000Z,0
2023-03-11T17:44:07.000Z,0
2023-03-11T17:45:23.000Z,0
2023-03-11T17:46:39.997Z,0
2023-03-11T17:47:56.000Z,0
2023-03-11T17:49:12.000Z,0
2023-03-11T17:50:27.000Z,0
2023-03-11T17:51:43.000Z,0